WXM80 ListenWXM80 Stop

You find our weather info also at:

UK Metoffice

WeatherCloud

Weather Underground

Northeastern Weather Network

AWEKAS

Citizen Weather Observer Program (CWOP)

HAMweather, WeatherForYou, PWS Weather


Weather Underground History page Text

Daily Summary for September 13, 2017 Units:  Both    English   Metric
« Previous Day
Next Day »
Daily Weekly Monthly Yearly Custom
  High: Low: Average:
Temperature: 86.3 °F /  30.2 °C 60.1 °F /  15.6 °C 71.6 °F /  22 °C
Dew Point: 68.9 °F /  20.5 °C 57.8 °F /  14.3 °C 63.8 °F /  17.7 °C
Humidity: 96 % 46 % 79 %
Wind Speed: 4.4 mph /  7.1 km/h - 0.7 mph /  1.1 km/h
Wind Gust: 9.2 mph /  14.8 km/h - -
Wind:- - SW
Pressure: 29.88 in /  1011.7 hPa 29.79 in /  1008.7 hPa -
Precipitation: 0.00 in /  0 mm    
Historical Graphs
 
 
Tabular Data for September 13, 2017
Time Temperature Dew Point Pressure Wind Wind Speed Wind Gust Humidity Rainfall Rate (Hourly)
00:01 65.4 °F /  18.6 °C 61.1 °F /  16.2 °C 29.85 in /  1010.7 hPa Calm     86 % 0.00 in /  0 mm
00:06 65.3 °F /  18.5 °C 61.0 °F /  16.1 °C 29.86 in /  1011.1 hPa Calm     86 % 0.00 in /  0 mm
00:08 65.3 °F /  18.5 °C 60.7 °F /  15.9 °C 29.86 in /  1011.1 hPa Calm     85 % 0.00 in /  0 mm
00:13 65.2 °F /  18.4 °C 60.9 °F /  16.1 °C 29.86 in /  1011.1 hPa Calm     86 % 0.00 in /  0 mm
00:18 65.0 °F /  18.3 °C 60.7 °F /  15.9 °C 29.86 in /  1011.1 hPa Calm   1.2 mph /  1.9 km/h 86 % 0.00 in /  0 mm
00:23 64.9 °F /  18.3 °C 60.6 °F /  15.9 °C 29.86 in /  1011.1 hPa Calm   1.2 mph /  1.9 km/h 86 % 0.00 in /  0 mm
00:28 64.7 °F /  18.2 °C 60.4 °F /  15.8 °C 29.86 in /  1011.1 hPa WSW 0.7 mph /  1.1 km/h 2.3 mph /  3.7 km/h 86 % 0.00 in /  0 mm
00:33 64.5 °F /  18.1 °C 60.2 °F /  15.7 °C 29.85 in /  1010.7 hPa WSW 0.4 mph /  0.6 km/h 1.2 mph /  1.9 km/h 86 % 0.00 in /  0 mm
00:38 64.4 °F /  18 °C 60.1 °F /  15.6 °C 29.85 in /  1010.7 hPa WSW 0.2 mph /  0.3 km/h 1.2 mph /  1.9 km/h 86 % 0.00 in /  0 mm
00:43 64.3 °F /  17.9 °C 60.3 °F /  15.7 °C 29.85 in /  1010.7 hPa WSW 0.2 mph /  0.3 km/h 1.2 mph /  1.9 km/h 87 % 0.00 in /  0 mm
00:48 64.1 °F /  17.8 °C 60.5 °F /  15.8 °C 29.85 in /  1010.7 hPa WSW 1.3 mph /  2.1 km/h 2.3 mph /  3.7 km/h 88 % 0.00 in /  0 mm
00:53 64.0 °F /  17.8 °C 60.4 °F /  15.8 °C 29.85 in /  1010.7 hPa WSW 0.3 mph /  0.5 km/h 1.2 mph /  1.9 km/h 88 % 0.00 in /  0 mm
00:58 64.0 °F /  17.8 °C 60.7 °F /  15.9 °C 29.85 in /  1010.7 hPa WSW 1.2 mph /  1.9 km/h 4.0 mph /  6.4 km/h 89 % 0.00 in /  0 mm
01:03 63.9 °F /  17.7 °C 60.6 °F /  15.9 °C 29.85 in /  1010.7 hPa Calm   1.2 mph /  1.9 km/h 89 % 0.00 in /  0 mm
01:08 63.9 °F /  17.7 °C 60.6 °F /  15.9 °C 29.85 in /  1010.7 hPa WSW 0.9 mph /  1.4 km/h 2.3 mph /  3.7 km/h 89 % 0.00 in /  0 mm
01:13 63.9 °F /  17.7 °C 60.6 °F /  15.9 °C 29.85 in /  1010.7 hPa WSW 1.4 mph /  2.3 km/h 3.5 mph /  5.6 km/h 89 % 0.00 in /  0 mm
01:18 63.9 °F /  17.7 °C 60.6 °F /  15.9 °C 29.85 in /  1010.7 hPa WSW 1.5 mph /  2.4 km/h 2.3 mph /  3.7 km/h 89 % 0.00 in /  0 mm
01:23 63.9 °F /  17.7 °C 60.6 °F /  15.9 °C 29.85 in /  1010.7 hPa WSW 1.6 mph /  2.6 km/h 3.0 mph /  4.8 km/h 89 % 0.00 in /  0 mm
01:28 63.8 °F /  17.7 °C 60.5 °F /  15.8 °C 29.85 in /  1010.7 hPa SW 0.6 mph /  1 km/h 2.3 mph /  3.7 km/h 89 % 0.00 in /  0 mm
01:33 63.8 °F /  17.7 °C 60.5 °F /  15.8 °C 29.85 in /  1010.7 hPa SW 1.2 mph /  1.9 km/h 3.5 mph /  5.6 km/h 89 % 0.00 in /  0 mm
01:38 63.8 °F /  17.7 °C 60.5 °F /  15.8 °C 29.85 in /  1010.7 hPa SW 1.2 mph /  1.9 km/h 3.5 mph /  5.6 km/h 89 % 0.00 in /  0 mm
01:43 63.8 °F /  17.7 °C 60.5 °F /  15.8 °C 29.85 in /  1010.7 hPa SW 1.7 mph /  2.7 km/h 2.3 mph /  3.7 km/h 89 % 0.00 in /  0 mm
01:48 63.8 °F /  17.7 °C 60.5 °F /  15.8 °C 29.85 in /  1010.7 hPa Calm   2.3 mph /  3.7 km/h 89 % 0.00 in /  0 mm
01:53 63.8 °F /  17.7 °C 60.5 °F /  15.8 °C 29.85 in /  1010.7 hPa SW 0.5 mph /  0.8 km/h 1.2 mph /  1.9 km/h 89 % 0.00 in /  0 mm
01:58 63.8 °F /  17.7 °C 60.2 °F /  15.7 °C 29.85 in /  1010.7 hPa Calm   1.2 mph /  1.9 km/h 88 % 0.00 in /  0 mm
02:03 63.8 °F /  17.7 °C 60.2 °F /  15.7 °C 29.85 in /  1010.7 hPa SW 0.3 mph /  0.5 km/h 1.2 mph /  1.9 km/h 88 % 0.00 in /  0 mm
02:08 63.7 °F /  17.6 °C 60.1 °F /  15.6 °C 29.85 in /  1010.7 hPa SW 0.1 mph /  0.2 km/h 1.2 mph /  1.9 km/h 88 % 0.00 in /  0 mm
02:13 63.7 °F /  17.6 °C 60.1 °F /  15.6 °C 29.85 in /  1010.7 hPa Calm   1.2 mph /  1.9 km/h 88 % 0.00 in /  0 mm
02:18 63.6 °F /  17.6 °C 60.0 °F /  15.6 °C 29.85 in /  1010.7 hPa SW 0.2 mph /  0.3 km/h 1.2 mph /  1.9 km/h 88 % 0.00 in /  0 mm
02:23 63.6 °F /  17.6 °C 60.0 °F /  15.6 °C 29.85 in /  1010.7 hPa SW 0.2 mph /  0.3 km/h 1.2 mph /  1.9 km/h 88 % 0.00 in /  0 mm
02:28 63.5 °F /  17.5 °C 59.9 °F /  15.5 °C 29.85 in /  1010.7 hPa Calm   1.2 mph /  1.9 km/h 88 % 0.00 in /  0 mm
02:34 63.5 °F /  17.5 °C 59.9 °F /  15.5 °C 29.85 in /  1010.7 hPa SW 0.1 mph /  0.2 km/h 2.3 mph /  3.7 km/h 88 % 0.00 in /  0 mm
02:39 63.4 °F /  17.4 °C 59.8 °F /  15.4 °C 29.85 in /  1010.7 hPa SW 0.2 mph /  0.3 km/h 1.2 mph /  1.9 km/h 88 % 0.00 in /  0 mm
02:44 63.4 °F /  17.4 °C 59.8 °F /  15.4 °C 29.85 in /  1010.7 hPa SW 0.3 mph /  0.5 km/h 2.3 mph /  3.7 km/h 88 % 0.00 in /  0 mm
02:49 63.3 °F /  17.4 °C 59.7 °F /  15.4 °C 29.85 in /  1010.7 hPa SW 1.1 mph /  1.8 km/h 3.5 mph /  5.6 km/h 88 % 0.00 in /  0 mm
02:54 63.2 °F /  17.3 °C 59.6 °F /  15.3 °C 29.86 in /  1011.1 hPa SW 0.9 mph /  1.4 km/h 3.5 mph /  5.6 km/h 88 % 0.00 in /  0 mm
02:59 63.2 °F /  17.3 °C 59.9 °F /  15.5 °C 29.85 in /  1010.7 hPa SW 0.7 mph /  1.1 km/h 2.3 mph /  3.7 km/h 89 % 0.00 in /  0 mm
03:04 63.2 °F /  17.3 °C 59.9 °F /  15.5 °C 29.85 in /  1010.7 hPa SW 0.6 mph /  1 km/h 2.3 mph /  3.7 km/h 89 % 0.00 in /  0 mm
03:09 63.1 °F /  17.3 °C 59.8 °F /  15.4 °C 29.85 in /  1010.7 hPa SW 0.6 mph /  1 km/h 1.2 mph /  1.9 km/h 89 % 0.00 in /  0 mm
03:14 63.1 °F /  17.3 °C 59.8 °F /  15.4 °C 29.85 in /  1010.7 hPa SSW 1.0 mph /  1.6 km/h 2.3 mph /  3.7 km/h 89 % 0.00 in /  0 mm
03:19 63.1 °F /  17.3 °C 59.8 °F /  15.4 °C 29.86 in /  1011.1 hPa SSW 0.6 mph /  1 km/h 2.3 mph /  3.7 km/h 89 % 0.00 in /  0 mm
03:24 63.1 °F /  17.3 °C 59.8 °F /  15.4 °C 29.86 in /  1011.1 hPa SSW 0.3 mph /  0.5 km/h 1.2 mph /  1.9 km/h 89 % 0.00 in /  0 mm
03:29 63.1 °F /  17.3 °C 59.8 °F /  15.4 °C 29.85 in /  1010.7 hPa SSW 0.5 mph /  0.8 km/h 1.2 mph /  1.9 km/h 89 % 0.00 in /  0 mm
03:34 63.1 °F /  17.3 °C 59.5 °F /  15.3 °C 29.85 in /  1010.7 hPa SSW 0.3 mph /  0.5 km/h 2.0 mph /  3.2 km/h 88 % 0.00 in /  0 mm
03:40 63.1 °F /  17.3 °C 59.5 °F /  15.3 °C 29.85 in /  1010.7 hPa SSW 0.4 mph /  0.6 km/h 2.3 mph /  3.7 km/h 88 % 0.00 in /  0 mm
03:45 63.0 °F /  17.2 °C 59.4 °F /  15.2 °C 29.86 in /  1011.1 hPa SSW 0.5 mph /  0.8 km/h 2.3 mph /  3.7 km/h 88 % 0.00 in /  0 mm
03:50 63.0 °F /  17.2 °C 59.4 °F /  15.2 °C 29.85 in /  1010.7 hPa Calm   1.2 mph /  1.9 km/h 88 % 0.00 in /  0 mm
03:55 63.0 °F /  17.2 °C 59.4 °F /  15.2 °C 29.85 in /  1010.7 hPa Calm   1.2 mph /  1.9 km/h 88 % 0.00 in /  0 mm
04:00 62.9 °F /  17.2 °C 59.3 °F /  15.2 °C 29.85 in /  1010.7 hPa SW 0.1 mph /  0.2 km/h 1.2 mph /  1.9 km/h 88 % 0.00 in /  0 mm
04:05 62.9 °F /  17.2 °C 59.3 °F /  15.2 °C 29.85 in /  1010.7 hPa SW 1.2 mph /  1.9 km/h 2.3 mph /  3.7 km/h 88 % 0.00 in /  0 mm
04:10 62.8 °F /  17.1 °C 59.2 °F /  15.1 °C 29.85 in /  1010.7 hPa SW 0.9 mph /  1.4 km/h 2.3 mph /  3.7 km/h 88 % 0.00 in /  0 mm
04:15 62.7 °F /  17.1 °C 59.1 °F /  15.1 °C 29.85 in /  1010.7 hPa SW 1.0 mph /  1.6 km/h 2.3 mph /  3.7 km/h 88 % 0.00 in /  0 mm
04:20 62.6 °F /  17 °C 59.0 °F /  15 °C 29.85 in /  1010.7 hPa SW 1.6 mph /  2.6 km/h 2.3 mph /  3.7 km/h 88 % 0.00 in /  0 mm
04:25 62.6 °F /  17 °C 59.3 °F /  15.2 °C 29.85 in /  1010.7 hPa SW 0.8 mph /  1.3 km/h 2.3 mph /  3.7 km/h 89 % 0.00 in /  0 mm
04:30 62.5 °F /  16.9 °C 59.2 °F /  15.1 °C 29.85 in /  1010.7 hPa SW 0.9 mph /  1.4 km/h 2.3 mph /  3.7 km/h 89 % 0.00 in /  0 mm
04:35 62.4 °F /  16.9 °C 59.1 °F /  15.1 °C 29.85 in /  1010.7 hPa SW 0.3 mph /  0.5 km/h 1.2 mph /  1.9 km/h 89 % 0.00 in /  0 mm
04:40 62.2 °F /  16.8 °C 58.9 °F /  14.9 °C 29.85 in /  1010.7 hPa SW 0.1 mph /  0.2 km/h 1.0 mph /  1.6 km/h 89 % 0.00 in /  0 mm
04:45 62.1 °F /  16.7 °C 58.8 °F /  14.9 °C 29.85 in /  1010.7 hPa Calm     89 % 0.00 in /  0 mm
04:51 62.1 °F /  16.7 °C 58.8 °F /  14.9 °C 29.85 in /  1010.7 hPa Calm   2.0 mph /  3.2 km/h 89 % 0.00 in /  0 mm
04:56 62.0 °F /  16.7 °C 58.7 °F /  14.8 °C 29.85 in /  1010.7 hPa Calm   1.2 mph /  1.9 km/h 89 % 0.00 in /  0 mm
05:01 61.9 °F /  16.6 °C 58.6 °F /  14.8 °C 29.85 in /  1010.7 hPa Calm   2.3 mph /  3.7 km/h 89 % 0.00 in /  0 mm
05:06 61.7 °F /  16.5 °C 58.4 °F /  14.7 °C 29.85 in /  1010.7 hPa Calm     89 % 0.00 in /  0 mm
05:11 61.6 °F /  16.4 °C 58.3 °F /  14.6 °C 29.85 in /  1010.7 hPa SW 0.2 mph /  0.3 km/h 1.2 mph /  1.9 km/h 89 % 0.00 in /  0 mm
05:16 61.6 °F /  16.4 °C 58.3 °F /  14.6 °C 29.85 in /  1010.7 hPa SW 0.4 mph /  0.6 km/h 2.3 mph /  3.7 km/h 89 % 0.00 in /  0 mm
05:21 61.4 °F /  16.3 °C 58.4 °F /  14.7 °C 29.85 in /  1010.7 hPa Calm   1.2 mph /  1.9 km/h 90 % 0.00 in /  0 mm
05:26 61.4 °F /  16.3 °C 58.4 °F /  14.7 °C 29.85 in /  1010.7 hPa Calm     90 % 0.00 in /  0 mm
05:31 61.3 °F /  16.3 °C 58.3 °F /  14.6 °C 29.85 in /  1010.7 hPa Calm     90 % 0.00 in /  0 mm
05:36 61.2 °F /  16.2 °C 58.2 °F /  14.6 °C 29.86 in /  1011.1 hPa Calm     90 % 0.00 in /  0 mm
05:41 61.1 °F /  16.2 °C 58.1 °F /  14.5 °C 29.86 in /  1011.1 hPa Calm     90 % 0.00 in /  0 mm
05:46 61.0 °F /  16.1 °C 58.0 °F /  14.4 °C 29.86 in /  1011.1 hPa Calm     90 % 0.00 in /  0 mm
05:51 60.9 °F /  16.1 °C 57.9 °F /  14.4 °C 29.86 in /  1011.1 hPa Calm   1.2 mph /  1.9 km/h 90 % 0.00 in /  0 mm
05:56 60.8 °F /  16 °C 57.8 °F /  14.3 °C 29.86 in /  1011.1 hPa SW 0.4 mph /  0.6 km/h 1.2 mph /  1.9 km/h 90 % 0.00 in /  0 mm
06:02 60.7 °F /  15.9 °C 58.1 °F /  14.5 °C 29.86 in /  1011.1 hPa Calm     91 % 0.00 in /  0 mm
06:07 60.6 °F /  15.9 °C 58.0 °F /  14.4 °C 29.87 in /  1011.4 hPa Calm     91 % 0.00 in /  0 mm
06:12 60.6 °F /  15.9 °C 58.0 °F /  14.4 °C 29.87 in /  1011.4 hPa Calm     91 % 0.00 in /  0 mm
06:17 60.5 °F /  15.8 °C 57.9 °F /  14.4 °C 29.87 in /  1011.4 hPa Calm   1.2 mph /  1.9 km/h 91 % 0.00 in /  0 mm
06:22 60.4 °F /  15.8 °C 57.8 °F /  14.3 °C 29.87 in /  1011.4 hPa SW 1.3 mph /  2.1 km/h 2.3 mph /  3.7 km/h 91 % 0.00 in /  0 mm
06:27 60.4 °F /  15.8 °C 58.1 °F /  14.5 °C 29.86 in /  1011.1 hPa Calm     92 % 0.00 in /  0 mm
06:32 60.3 °F /  15.7 °C 58.0 °F /  14.4 °C 29.87 in /  1011.4 hPa SW 0.1 mph /  0.2 km/h 2.0 mph /  3.2 km/h 92 % 0.00 in /  0 mm
06:37 60.3 °F /  15.7 °C 58.3 °F /  14.6 °C 29.87 in /  1011.4 hPa Calm     93 % 0.00 in /  0 mm
06:42 60.3 °F /  15.7 °C 58.3 °F /  14.6 °C 29.87 in /  1011.4 hPa SW 0.3 mph /  0.5 km/h 2.3 mph /  3.7 km/h 93 % 0.00 in /  0 mm
06:47 60.3 °F /  15.7 °C 58.3 °F /  14.6 °C 29.87 in /  1011.4 hPa SW 0.2 mph /  0.3 km/h 1.2 mph /  1.9 km/h 93 % 0.00 in /  0 mm
06:52 60.3 °F /  15.7 °C 58.3 °F /  14.6 °C 29.87 in /  1011.4 hPa Calm   1.2 mph /  1.9 km/h 93 % 0.00 in /  0 mm
06:57 60.2 °F /  15.7 °C 58.2 °F /  14.6 °C 29.87 in /  1011.4 hPa Calm     93 % 0.00 in /  0 mm
07:03 60.2 °F /  15.7 °C 58.2 °F /  14.6 °C 29.87 in /  1011.4 hPa Calm     93 % 0.00 in /  0 mm
07:08 60.2 °F /  15.7 °C 58.2 °F /  14.6 °C 29.87 in /  1011.4 hPa Calm     93 % 0.00 in /  0 mm
07:13 60.1 °F /  15.6 °C 58.1 °F /  14.5 °C 29.87 in /  1011.4 hPa Calm     93 % 0.00 in /  0 mm
07:18 60.1 °F /  15.6 °C 58.1 °F /  14.5 °C 29.88 in /  1011.7 hPa Calm     93 % 0.00 in /  0 mm
07:23 60.1 °F /  15.6 °C 58.1 °F /  14.5 °C 29.87 in /  1011.4 hPa Calm     93 % 0.00 in /  0 mm
07:26 60.1 °F /  15.6 °C 58.1 °F /  14.5 °C 29.87 in /  1011.4 hPa Calm     93 % 0.00 in /  0 mm
07:31 60.1 °F /  15.6 °C 58.1 °F /  14.5 °C 29.87 in /  1011.4 hPa Calm     93 % 0.00 in /  0 mm
07:36 60.1 °F /  15.6 °C 58.1 °F /  14.5 °C 29.87 in /  1011.4 hPa Calm     93 % 0.00 in /  0 mm
07:41 60.2 °F /  15.7 °C 58.5 °F /  14.7 °C 29.87 in /  1011.4 hPa SW 0.1 mph /  0.2 km/h 1.2 mph /  1.9 km/h 94 % 0.00 in /  0 mm
07:46 60.3 °F /  15.7 °C 58.6 °F /  14.8 °C 29.87 in /  1011.4 hPa SW 0.1 mph /  0.2 km/h 1.0 mph /  1.6 km/h 94 % 0.00 in /  0 mm
07:51 60.5 °F /  15.8 °C 58.8 °F /  14.9 °C 29.87 in /  1011.4 hPa Calm     94 % 0.00 in /  0 mm
07:56 60.7 °F /  15.9 °C 59.0 °F /  15 °C 29.87 in /  1011.4 hPa Calm     94 % 0.00 in /  0 mm
08:01 60.8 °F /  16 °C 59.4 °F /  15.2 °C 29.87 in /  1011.4 hPa Calm     95 % 0.00 in /  0 mm
08:07 61.2 °F /  16.2 °C 59.8 °F /  15.4 °C 29.87 in /  1011.4 hPa Calm     95 % 0.00 in /  0 mm
08:12 61.5 °F /  16.4 °C 60.1 °F /  15.6 °C 29.86 in /  1011.1 hPa Calm     95 % 0.00 in /  0 mm
08:17 61.9 °F /  16.6 °C 60.7 °F /  15.9 °C 29.86 in /  1011.1 hPa Calm     96 % 0.00 in /  0 mm
08:22 62.1 °F /  16.7 °C 60.9 °F /  16.1 °C 29.86 in /  1011.1 hPa WNW 1.5 mph /  2.4 km/h 3.5 mph /  5.6 km/h 96 % 0.00 in /  0 mm
08:27 62.4 °F /  16.9 °C 61.2 °F /  16.2 °C 29.87 in /  1011.4 hPa West 0.3 mph /  0.5 km/h 3.0 mph /  4.8 km/h 96 % 0.00 in /  0 mm
08:32 62.7 °F /  17.1 °C 61.5 °F /  16.4 °C 29.87 in /  1011.4 hPa SW 0.9 mph /  1.4 km/h 2.3 mph /  3.7 km/h 96 % 0.00 in /  0 mm
08:37 63.0 °F /  17.2 °C 61.8 °F /  16.6 °C 29.87 in /  1011.4 hPa West 2.8 mph /  4.5 km/h 3.5 mph /  5.6 km/h 96 % 0.00 in /  0 mm
08:42 63.3 °F /  17.4 °C 61.8 °F /  16.6 °C 29.87 in /  1011.4 hPa SW 0.9 mph /  1.4 km/h 2.0 mph /  3.2 km/h 95 % 0.00 in /  0 mm
08:47 63.7 °F /  17.6 °C 62.2 °F /  16.8 °C 29.87 in /  1011.4 hPa WSW 2.6 mph /  4.2 km/h 3.5 mph /  5.6 km/h 95 % 0.00 in /  0 mm
08:52 64.1 °F /  17.8 °C 62.6 °F /  17 °C 29.87 in /  1011.4 hPa SW 1.5 mph /  2.4 km/h 3.5 mph /  5.6 km/h 95 % 0.00 in /  0 mm
08:57 64.5 °F /  18.1 °C 62.7 °F /  17.1 °C 29.87 in /  1011.4 hPa WSW 0.9 mph /  1.4 km/h 2.3 mph /  3.7 km/h 94 % 0.00 in /  0 mm
09:02 65.0 °F /  18.3 °C 63.2 °F /  17.3 °C 29.87 in /  1011.4 hPa WSW 0.9 mph /  1.4 km/h 3.5 mph /  5.6 km/h 94 % 0.00 in /  0 mm
09:08 65.3 °F /  18.5 °C 63.2 °F /  17.3 °C 29.88 in /  1011.7 hPa SW 1.2 mph /  1.9 km/h 2.3 mph /  3.7 km/h 93 % 0.00 in /  0 mm
09:13 65.7 °F /  18.7 °C 63.6 °F /  17.6 °C 29.88 in /  1011.7 hPa Calm     93 % 0.00 in /  0 mm
09:18 65.9 °F /  18.8 °C 63.5 °F /  17.5 °C 29.88 in /  1011.7 hPa NW 1.0 mph /  1.6 km/h 3.5 mph /  5.6 km/h 92 % 0.00 in /  0 mm
09:23 66.2 °F /  19 °C 63.5 °F /  17.5 °C 29.88 in /  1011.7 hPa West 3.0 mph /  4.8 km/h 3.5 mph /  5.6 km/h 91 % 0.00 in /  0 mm
09:28 66.5 °F /  19.2 °C 63.5 °F /  17.5 °C 29.88 in /  1011.7 hPa WSW 1.1 mph /  1.8 km/h 2.3 mph /  3.7 km/h 90 % 0.00 in /  0 mm
09:33 66.7 °F /  19.3 °C 63.7 °F /  17.6 °C 29.88 in /  1011.7 hPa Calm     90 % 0.00 in /  0 mm
09:38 67.0 °F /  19.4 °C 64.0 °F /  17.8 °C 29.88 in /  1011.7 hPa West 0.9 mph /  1.4 km/h 2.3 mph /  3.7 km/h 90 % 0.00 in /  0 mm
09:43 67.3 °F /  19.6 °C 64.3 °F /  17.9 °C 29.88 in /  1011.7 hPa WNW 2.0 mph /  3.2 km/h 3.5 mph /  5.6 km/h 90 % 0.00 in /  0 mm
09:48 67.7 °F /  19.8 °C 64.7 °F /  18.2 °C 29.87 in /  1011.4 hPa NNW 0.7 mph /  1.1 km/h 2.0 mph /  3.2 km/h 90 % 0.00 in /  0 mm
09:53 68.2 °F /  20.1 °C 64.8 °F /  18.2 °C 29.87 in /  1011.4 hPa West 0.4 mph /  0.6 km/h 3.5 mph /  5.6 km/h 89 % 0.00 in /  0 mm
09:58 68.7 °F /  20.4 °C 65.3 °F /  18.5 °C 29.87 in /  1011.4 hPa West 0.2 mph /  0.3 km/h 1.2 mph /  1.9 km/h 89 % 0.00 in /  0 mm
10:03 69.2 °F /  20.7 °C 65.5 °F /  18.6 °C 29.87 in /  1011.4 hPa North 3.2 mph /  5.1 km/h 4.6 mph /  7.4 km/h 88 % 0.00 in /  0 mm
10:08 69.4 °F /  20.8 °C 65.4 °F /  18.6 °C 29.87 in /  1011.4 hPa North 1.6 mph /  2.6 km/h 3.5 mph /  5.6 km/h 87 % 0.00 in /  0 mm
10:13 69.7 °F /  20.9 °C 65.3 °F /  18.5 °C 29.87 in /  1011.4 hPa North 1.2 mph /  1.9 km/h 2.3 mph /  3.7 km/h 86 % 0.00 in /  0 mm
10:19 69.9 °F /  21.1 °C 65.5 °F /  18.6 °C 29.87 in /  1011.4 hPa North 0.5 mph /  0.8 km/h 2.0 mph /  3.2 km/h 86 % 0.00 in /  0 mm
10:24 70.1 °F /  21.2 °C 65.4 °F /  18.6 °C 29.87 in /  1011.4 hPa North 1.9 mph /  3.1 km/h 3.5 mph /  5.6 km/h 85 % 0.00 in /  0 mm
10:29 70.2 °F /  21.2 °C 65.5 °F /  18.6 °C 29.87 in /  1011.4 hPa NNE 1.8 mph /  2.9 km/h 3.5 mph /  5.6 km/h 85 % 0.00 in /  0 mm
10:34 70.3 °F /  21.3 °C 65.6 °F /  18.7 °C 29.87 in /  1011.4 hPa WNW 0.3 mph /  0.5 km/h 3.5 mph /  5.6 km/h 85 % 0.00 in /  0 mm
10:39 70.5 °F /  21.4 °C 65.4 °F /  18.6 °C 29.87 in /  1011.4 hPa NNW 0.2 mph /  0.3 km/h 2.3 mph /  3.7 km/h 84 % 0.00 in /  0 mm
10:44 70.8 °F /  21.6 °C 66.1 °F /  18.9 °C 29.87 in /  1011.4 hPa WNW 0.3 mph /  0.5 km/h 2.3 mph /  3.7 km/h 85 % 0.00 in /  0 mm
10:49 71.0 °F /  21.7 °C 65.9 °F /  18.8 °C 29.87 in /  1011.4 hPa WNW 1.8 mph /  2.9 km/h 3.5 mph /  5.6 km/h 84 % 0.00 in /  0 mm
10:55 71.2 °F /  21.8 °C 65.8 °F /  18.8 °C 29.86 in /  1011.1 hPa WNW 1.7 mph /  2.7 km/h 3.5 mph /  5.6 km/h 83 % 0.00 in /  0 mm
11:00 71.5 °F /  21.9 °C 66.1 °F /  18.9 °C 29.86 in /  1011.1 hPa WNW 0.1 mph /  0.2 km/h 2.3 mph /  3.7 km/h 83 % 0.00 in /  0 mm
11:05 71.8 °F /  22.1 °C 66.0 °F /  18.9 °C 29.86 in /  1011.1 hPa North 1.8 mph /  2.9 km/h 3.5 mph /  5.6 km/h 82 % 0.00 in /  0 mm
11:10 72.2 °F /  22.3 °C 66.0 °F /  18.9 °C 29.86 in /  1011.1 hPa WNW 1.0 mph /  1.6 km/h 2.3 mph /  3.7 km/h 81 % 0.00 in /  0 mm
11:15 72.9 °F /  22.7 °C 66.7 °F /  19.3 °C 29.86 in /  1011.1 hPa NW 1.0 mph /  1.6 km/h 3.5 mph /  5.6 km/h 81 % 0.00 in /  0 mm
11:20 73.8 °F /  23.2 °C 67.2 °F /  19.6 °C 29.85 in /  1010.7 hPa West 2.4 mph /  3.9 km/h 3.5 mph /  5.6 km/h 80 % 0.00 in /  0 mm
11:25 74.7 °F /  23.7 °C 67.4 °F /  19.7 °C 29.86 in /  1011.1 hPa North 0.4 mph /  0.6 km/h 2.3 mph /  3.7 km/h 78 % 0.00 in /  0 mm
11:30 75.7 °F /  24.3 °C 68.4 °F /  20.2 °C 29.86 in /  1011.1 hPa North 0.8 mph /  1.3 km/h 2.3 mph /  3.7 km/h 78 % 0.00 in /  0 mm
11:35 76.8 °F /  24.9 °C 67.1 °F /  19.5 °C 29.86 in /  1011.1 hPa WSW 1.4 mph /  2.3 km/h 3.5 mph /  5.6 km/h 72 % 0.00 in /  0 mm
11:40 77.4 °F /  25.2 °C 66.0 °F /  18.9 °C 29.86 in /  1011.1 hPa NNW 1.3 mph /  2.1 km/h 4.6 mph /  7.4 km/h 68 % 0.00 in /  0 mm
11:45 78.2 °F /  25.7 °C 68.0 °F /  20 °C 29.86 in /  1011.1 hPa SW 2.2 mph /  3.5 km/h 4.6 mph /  7.4 km/h 71 % 0.00 in /  0 mm
11:51 79.2 °F /  26.2 °C 68.6 °F /  20.3 °C 29.85 in /  1010.7 hPa West 0.4 mph /  0.6 km/h 3.5 mph /  5.6 km/h 70 % 0.00 in /  0 mm
11:56 80.0 °F /  26.7 °C 67.2 °F /  19.6 °C 29.85 in /  1010.7 hPa WSW 2.0 mph /  3.2 km/h 4.0 mph /  6.4 km/h 65 % 0.00 in /  0 mm
12:01 80.8 °F /  27.1 °C 66.6 °F /  19.2 °C 29.85 in /  1010.7 hPa West 1.4 mph /  2.3 km/h 2.3 mph /  3.7 km/h 62 % 0.00 in /  0 mm
12:06 81.5 °F /  27.5 °C 67.2 °F /  19.6 °C 29.85 in /  1010.7 hPa NW 1.8 mph /  2.9 km/h 4.0 mph /  6.4 km/h 62 % 0.00 in /  0 mm
12:11 82.0 °F /  27.8 °C 65.8 °F /  18.8 °C 29.85 in /  1010.7 hPa WSW 2.9 mph /  4.7 km/h 3.5 mph /  5.6 km/h 58 % 0.00 in /  0 mm
12:16 82.7 °F /  28.2 °C 67.9 °F /  19.9 °C 29.85 in /  1010.7 hPa WSW 1.1 mph /  1.8 km/h 2.3 mph /  3.7 km/h 61 % 0.00 in /  0 mm
12:21 83.3 °F /  28.5 °C 68.9 °F /  20.5 °C 29.85 in /  1010.7 hPa West 0.1 mph /  0.2 km/h 1.2 mph /  1.9 km/h 62 % 0.00 in /  0 mm
12:26 83.9 °F /  28.8 °C 66.5 °F /  19.2 °C 29.85 in /  1010.7 hPa WSW 2.4 mph /  3.9 km/h 4.6 mph /  7.4 km/h 56 % 0.00 in /  0 mm
12:31 84.3 °F /  29.1 °C 68.9 °F /  20.5 °C 29.84 in /  1010.4 hPa WSW 0.6 mph /  1 km/h 1.2 mph /  1.9 km/h 60 % 0.00 in /  0 mm
12:36 84.7 °F /  29.3 °C 66.2 °F /  19 °C 29.84 in /  1010.4 hPa West 0.1 mph /  0.2 km/h 3.5 mph /  5.6 km/h 54 % 0.00 in /  0 mm
12:41 84.9 °F /  29.4 °C 65.9 °F /  18.8 °C 29.84 in /  1010.4 hPa SW 3.1 mph /  5 km/h 5.8 mph /  9.3 km/h 53 % 0.00 in /  0 mm
12:46 85.1 °F /  29.5 °C 64.9 °F /  18.3 °C 29.84 in /  1010.4 hPa West 1.9 mph /  3.1 km/h 4.0 mph /  6.4 km/h 51 % 0.00 in /  0 mm
12:51 85.3 °F /  29.6 °C 66.8 °F /  19.3 °C 29.84 in /  1010.4 hPa NW 1.1 mph /  1.8 km/h 3.5 mph /  5.6 km/h 54 % 0.00 in /  0 mm
12:57 85.5 °F /  29.7 °C 65.3 °F /  18.5 °C 29.84 in /  1010.4 hPa SW 0.9 mph /  1.4 km/h 3.5 mph /  5.6 km/h 51 % 0.00 in /  0 mm
13:02 85.7 °F /  29.8 °C 67.1 °F /  19.5 °C 29.84 in /  1010.4 hPa SW 0.1 mph /  0.2 km/h 1.2 mph /  1.9 km/h 54 % 0.00 in /  0 mm
13:07 85.9 °F /  29.9 °C 65.7 °F /  18.7 °C 29.84 in /  1010.4 hPa WSW 0.8 mph /  1.3 km/h 2.3 mph /  3.7 km/h 51 % 0.00 in /  0 mm
13:12 86.0 °F /  30 °C 66.9 °F /  19.4 °C 29.84 in /  1010.4 hPa WNW 1.2 mph /  1.9 km/h 3.5 mph /  5.6 km/h 53 % 0.00 in /  0 mm
13:17 86.2 °F /  30.1 °C 68.1 °F /  20.1 °C 29.84 in /  1010.4 hPa North 1.5 mph /  2.4 km/h 3.5 mph /  5.6 km/h 55 % 0.00 in /  0 mm
13:22 86.3 °F /  30.2 °C 67.7 °F /  19.8 °C 29.83 in /  1010 hPa North 2.7 mph /  4.3 km/h 4.6 mph /  7.4 km/h 54 % 0.00 in /  0 mm
13:27 86.2 °F /  30.1 °C 68.7 °F /  20.4 °C 29.83 in /  1010 hPa North 3.3 mph /  5.3 km/h 5.8 mph /  9.3 km/h 56 % 0.00 in /  0 mm
13:32 86.0 °F /  30 °C 67.4 °F /  19.7 °C 29.83 in /  1010 hPa North 4.4 mph /  7.1 km/h 5.8 mph /  9.3 km/h 54 % 0.00 in /  0 mm
13:37 85.7 °F /  29.8 °C 66.6 °F /  19.2 °C 29.83 in /  1010 hPa NNW 1.3 mph /  2.1 km/h 3.0 mph /  4.8 km/h 53 % 0.00 in /  0 mm
13:42 85.7 °F /  29.8 °C 67.1 °F /  19.5 °C 29.83 in /  1010 hPa NNW 3.5 mph /  5.6 km/h 5.8 mph /  9.3 km/h 54 % 0.00 in /  0 mm
13:47 85.5 °F /  29.7 °C 65.9 °F /  18.8 °C 29.83 in /  1010 hPa North 1.5 mph /  2.4 km/h 4.0 mph /  6.4 km/h 52 % 0.00 in /  0 mm
13:53 85.3 °F /  29.6 °C 66.2 °F /  19 °C 29.82 in /  1009.7 hPa North 1.1 mph /  1.8 km/h 3.5 mph /  5.6 km/h 53 % 0.00 in /  0 mm
13:58 85.2 °F /  29.6 °C 66.1 °F /  18.9 °C 29.82 in /  1009.7 hPa WNW 1.8 mph /  2.9 km/h 4.0 mph /  6.4 km/h 53 % 0.00 in /  0 mm
14:03 85.3 °F /  29.6 °C 66.8 °F /  19.3 °C 29.82 in /  1009.7 hPa NNE 2.7 mph /  4.3 km/h 4.0 mph /  6.4 km/h 54 % 0.00 in /  0 mm
14:08 85.2 °F /  29.6 °C 63.9 °F /  17.7 °C 29.81 in /  1009.4 hPa WNW 2.3 mph /  3.7 km/h 3.5 mph /  5.6 km/h 49 % 0.00 in /  0 mm
14:13 85.2 °F /  29.6 °C 64.5 °F /  18.1 °C 29.81 in /  1009.4 hPa NNW 1.1 mph /  1.8 km/h 3.5 mph /  5.6 km/h 50 % 0.00 in /  0 mm
14:18 85.3 °F /  29.6 °C 64.6 °F /  18.1 °C 29.81 in /  1009.4 hPa NW 3.2 mph /  5.1 km/h 4.6 mph /  7.4 km/h 50 % 0.00 in /  0 mm
14:23 85.3 °F /  29.6 °C 64.6 °F /  18.1 °C 29.81 in /  1009.4 hPa NNW 1.0 mph /  1.6 km/h 3.5 mph /  5.6 km/h 50 % 0.00 in /  0 mm
14:28 85.3 °F /  29.6 °C 64.0 °F /  17.8 °C 29.81 in /  1009.4 hPa NNE 2.2 mph /  3.5 km/h 3.5 mph /  5.6 km/h 49 % 0.00 in /  0 mm
14:33 85.2 °F /  29.6 °C 64.5 °F /  18.1 °C 29.81 in /  1009.4 hPa NNE 2.3 mph /  3.7 km/h 4.6 mph /  7.4 km/h 50 % 0.00 in /  0 mm
14:34 85.2 °F /  29.6 °C 64.5 °F /  18.1 °C 29.81 in /  1009.4 hPa North 2.0 mph /  3.2 km/h 4.6 mph /  7.4 km/h 50 % 0.00 in /  0 mm
14:39 85.4 °F /  29.7 °C 64.6 °F /  18.1 °C 29.81 in /  1009.4 hPa NNE 1.6 mph /  2.6 km/h 3.5 mph /  5.6 km/h 50 % 0.00 in /  0 mm
14:44 85.4 °F /  29.7 °C 63.5 °F /  17.5 °C 29.81 in /  1009.4 hPa NNE 0.7 mph /  1.1 km/h 3.5 mph /  5.6 km/h 48 % 0.00 in /  0 mm
14:49 85.3 °F /  29.6 °C 63.4 °F /  17.4 °C 29.81 in /  1009.4 hPa North 2.0 mph /  3.2 km/h 5.8 mph /  9.3 km/h 48 % 0.00 in /  0 mm
14:54 85.2 °F /  29.6 °C 62.1 °F /  16.7 °C 29.81 in /  1009.4 hPa WNW 0.9 mph /  1.4 km/h 3.0 mph /  4.8 km/h 46 % 0.00 in /  0 mm
14:59 85.0 °F /  29.4 °C 61.9 °F /  16.6 °C 29.81 in /  1009.4 hPa Calm   2.3 mph /  3.7 km/h 46 % 0.00 in /  0 mm
15:04 84.9 °F /  29.4 °C 63.0 °F /  17.2 °C 29.80 in /  1009 hPa WNW 0.2 mph /  0.3 km/h 1.2 mph /  1.9 km/h 48 % 0.00 in /  0 mm
15:09 84.3 °F /  29.1 °C 62.5 °F /  16.9 °C 29.80 in /  1009 hPa Calm     48 % 0.00 in /  0 mm
15:14 84.2 °F /  29 °C 62.4 °F /  16.9 °C 29.81 in /  1009.4 hPa Calm   1.2 mph /  1.9 km/h 48 % 0.00 in /  0 mm
15:19 84.2 °F /  29 °C 62.4 °F /  16.9 °C 29.80 in /  1009 hPa Calm   1.2 mph /  1.9 km/h 48 % 0.00 in /  0 mm
15:24 84.1 °F /  28.9 °C 62.9 °F /  17.2 °C 29.80 in /  1009 hPa Calm   1.2 mph /  1.9 km/h 49 % 0.00 in /  0 mm
15:30 84.1 °F /  28.9 °C 62.9 °F /  17.2 °C 29.80 in /  1009 hPa West 1.3 mph /  2.1 km/h 3.5 mph /  5.6 km/h 49 % 0.00 in /  0 mm
15:35 84.1 °F /  28.9 °C 63.5 °F /  17.5 °C 29.80 in /  1009 hPa WSW 1.8 mph /  2.9 km/h 3.5 mph /  5.6 km/h 50 % 0.00 in /  0 mm
15:40 84.1 °F /  28.9 °C 64.6 °F /  18.1 °C 29.79 in /  1008.7 hPa SE 0.9 mph /  1.4 km/h 3.5 mph /  5.6 km/h 52 % 0.00 in /  0 mm
15:45 83.9 °F /  28.8 °C 65.5 °F /  18.6 °C 29.79 in /  1008.7 hPa WSW 3.4 mph /  5.5 km/h 4.6 mph /  7.4 km/h 54 % 0.00 in /  0 mm
15:50 83.8 °F /  28.8 °C 65.4 °F /  18.6 °C 29.80 in /  1009 hPa SW 0.7 mph /  1.1 km/h 2.3 mph /  3.7 km/h 54 % 0.00 in /  0 mm
15:55 83.6 °F /  28.7 °C 65.7 °F /  18.7 °C 29.80 in /  1009 hPa SW 1.3 mph /  2.1 km/h 3.5 mph /  5.6 km/h 55 % 0.00 in /  0 mm
16:00 83.5 °F /  28.6 °C 66.2 °F /  19 °C 29.80 in /  1009 hPa SE 0.7 mph /  1.1 km/h 2.3 mph /  3.7 km/h 56 % 0.00 in /  0 mm
16:05 83.4 °F /  28.6 °C 66.1 °F /  18.9 °C 29.79 in /  1008.7 hPa WSW 3.3 mph /  5.3 km/h 5.8 mph /  9.3 km/h 56 % 0.00 in /  0 mm
16:10 83.3 °F /  28.5 °C 65.4 °F /  18.6 °C 29.80 in /  1009 hPa SSW 2.8 mph /  4.5 km/h 9.2 mph /  14.8 km/h 55 % 0.00 in /  0 mm
16:15 83.3 °F /  28.5 °C 66.0 °F /  18.9 °C 29.80 in /  1009 hPa SW 1.1 mph /  1.8 km/h 3.5 mph /  5.6 km/h 56 % 0.00 in /  0 mm
16:20 83.4 °F /  28.6 °C 66.1 °F /  18.9 °C 29.79 in /  1008.7 hPa SW 0.3 mph /  0.5 km/h 1.2 mph /  1.9 km/h 56 % 0.00 in /  0 mm
16:25 83.3 °F /  28.5 °C 66.5 °F /  19.2 °C 29.79 in /  1008.7 hPa SW 0.6 mph /  1 km/h 2.3 mph /  3.7 km/h 57 % 0.00 in /  0 mm
16:30 83.2 °F /  28.4 °C 66.4 °F /  19.1 °C 29.79 in /  1008.7 hPa WSW 1.1 mph /  1.8 km/h 1.2 mph /  1.9 km/h 57 % 0.00 in /  0 mm
16:35 83.1 °F /  28.4 °C 65.8 °F /  18.8 °C 29.79 in /  1008.7 hPa SW 0.9 mph /  1.4 km/h 2.3 mph /  3.7 km/h 56 % 0.00 in /  0 mm
16:41 82.9 °F /  28.3 °C 66.6 °F /  19.2 °C 29.79 in /  1008.7 hPa SW 1.0 mph /  1.6 km/h 5.0 mph /  8 km/h 58 % 0.00 in /  0 mm
16:46 82.7 °F /  28.2 °C 66.4 °F /  19.1 °C 29.79 in /  1008.7 hPa Calm   3.0 mph /  4.8 km/h 58 % 0.00 in /  0 mm
16:51 82.5 °F /  28.1 °C 66.2 °F /  19 °C 29.79 in /  1008.7 hPa Calm   2.0 mph /  3.2 km/h 58 % 0.00 in /  0 mm
16:56 82.2 °F /  27.9 °C 66.4 °F /  19.1 °C 29.79 in /  1008.7 hPa South 0.3 mph /  0.5 km/h 2.3 mph /  3.7 km/h 59 % 0.00 in /  0 mm
17:01 82.0 °F /  27.8 °C 66.3 °F /  19.1 °C 29.80 in /  1009 hPa Calm   3.5 mph /  5.6 km/h 59 % 0.00 in /  0 mm
17:06 81.6 °F /  27.6 °C 66.4 °F /  19.1 °C 29.80 in /  1009 hPa SSW 0.2 mph /  0.3 km/h 3.5 mph /  5.6 km/h 60 % 0.00 in /  0 mm
17:11 81.2 °F /  27.3 °C 66.0 °F /  18.9 °C 29.80 in /  1009 hPa South 0.8 mph /  1.3 km/h 3.5 mph /  5.6 km/h 60 % 0.00 in /  0 mm
17:16 80.8 °F /  27.1 °C 66.1 °F /  18.9 °C 29.80 in /  1009 hPa SE 0.4 mph /  0.6 km/h 1.2 mph /  1.9 km/h 61 % 0.00 in /  0 mm
17:21 80.6 °F /  27 °C 66.4 °F /  19.1 °C 29.80 in /  1009 hPa SSW 0.3 mph /  0.5 km/h 1.2 mph /  1.9 km/h 62 % 0.00 in /  0 mm
17:26 80.2 °F /  26.8 °C 65.5 °F /  18.6 °C 29.80 in /  1009 hPa SSW 0.1 mph /  0.2 km/h 1.2 mph /  1.9 km/h 61 % 0.00 in /  0 mm
17:31 79.9 °F /  26.6 °C 65.7 °F /  18.7 °C 29.80 in /  1009 hPa West 1.0 mph /  1.6 km/h 6.0 mph /  9.7 km/h 62 % 0.00 in /  0 mm
17:36 79.6 °F /  26.4 °C 65.0 °F /  18.3 °C 29.81 in /  1009.4 hPa South 1.2 mph /  1.9 km/h 4.6 mph /  7.4 km/h 61 % 0.00 in /  0 mm
17:41 79.3 °F /  26.3 °C 64.7 °F /  18.2 °C 29.81 in /  1009.4 hPa SSW 3.1 mph /  5 km/h 9.2 mph /  14.8 km/h 61 % 0.00 in /  0 mm
17:46 78.9 °F /  26.1 °C 64.8 °F /  18.2 °C 29.81 in /  1009.4 hPa ESE 0.2 mph /  0.3 km/h 2.3 mph /  3.7 km/h 62 % 0.00 in /  0 mm
17:51 78.5 °F /  25.8 °C 64.9 °F /  18.3 °C 29.80 in /  1009 hPa SW 0.4 mph /  0.6 km/h 4.6 mph /  7.4 km/h 63 % 0.00 in /  0 mm
17:56 78.2 °F /  25.7 °C 65.0 °F /  18.3 °C 29.80 in /  1009 hPa SW 2.3 mph /  3.7 km/h 4.6 mph /  7.4 km/h 64 % 0.00 in /  0 mm
18:01 77.8 °F /  25.4 °C 65.1 °F /  18.4 °C 29.80 in /  1009 hPa Calm     65 % 0.00 in /  0 mm
18:07 77.6 °F /  25.3 °C 65.3 °F /  18.5 °C 29.80 in /  1009 hPa Calm     66 % 0.00 in /  0 mm
18:12 77.2 °F /  25.1 °C 65.8 °F /  18.8 °C 29.81 in /  1009.4 hPa SE 0.1 mph /  0.2 km/h 1.2 mph /  1.9 km/h 68 % 0.00 in /  0 mm
18:17 76.9 °F /  24.9 °C 66.0 °F /  18.9 °C 29.80 in /  1009 hPa WNW 0.8 mph /  1.3 km/h 3.5 mph /  5.6 km/h 69 % 0.00 in /  0 mm
18:22 76.7 °F /  24.8 °C 66.2 °F /  19 °C 29.80 in /  1009 hPa WSW 1.3 mph /  2.1 km/h 4.6 mph /  7.4 km/h 70 % 0.00 in /  0 mm
18:27 76.4 °F /  24.7 °C 66.3 °F /  19.1 °C 29.80 in /  1009 hPa WSW 1.6 mph /  2.6 km/h 3.5 mph /  5.6 km/h 71 % 0.00 in /  0 mm
18:32 76.1 °F /  24.5 °C 66.4 °F /  19.1 °C 29.81 in /  1009.4 hPa WSW 0.5 mph /  0.8 km/h 2.3 mph /  3.7 km/h 72 % 0.00 in /  0 mm
18:37 75.9 °F /  24.4 °C 66.6 °F /  19.2 °C 29.81 in /  1009.4 hPa SW 2.1 mph /  3.4 km/h 5.0 mph /  8 km/h 73 % 0.00 in /  0 mm
18:42 75.6 °F /  24.2 °C 66.7 °F /  19.3 °C 29.81 in /  1009.4 hPa SW 2.0 mph /  3.2 km/h 3.5 mph /  5.6 km/h 74 % 0.00 in /  0 mm
18:47 75.4 °F /  24.1 °C 66.9 °F /  19.4 °C 29.81 in /  1009.4 hPa West 3.6 mph /  5.8 km/h 6.0 mph /  9.7 km/h 75 % 0.00 in /  0 mm
18:52 75.2 °F /  24 °C 67.1 °F /  19.5 °C 29.81 in /  1009.4 hPa SSW 2.0 mph /  3.2 km/h 4.0 mph /  6.4 km/h 76 % 0.00 in /  0 mm
18:57 75.0 °F /  23.9 °C 66.9 °F /  19.4 °C 29.81 in /  1009.4 hPa SW 2.2 mph /  3.5 km/h 4.0 mph /  6.4 km/h 76 % 0.00 in /  0 mm
19:02 74.8 °F /  23.8 °C 67.1 °F /  19.5 °C 29.81 in /  1009.4 hPa SW 2.3 mph /  3.7 km/h 4.0 mph /  6.4 km/h 77 % 0.00 in /  0 mm
19:08 74.7 °F /  23.7 °C 67.4 °F /  19.7 °C 29.81 in /  1009.4 hPa West 1.4 mph /  2.3 km/h 4.6 mph /  7.4 km/h 78 % 0.00 in /  0 mm
19:13 74.5 °F /  23.6 °C 67.6 °F /  19.8 °C 29.81 in /  1009.4 hPa SW 3.5 mph /  5.6 km/h 5.8 mph /  9.3 km/h 79 % 0.00 in /  0 mm
19:17 74.4 °F /  23.6 °C 67.5 °F /  19.7 °C 29.81 in /  1009.4 hPa West 1.7 mph /  2.7 km/h 3.5 mph /  5.6 km/h 79 % 0.00 in /  0 mm
19:22 74.3 °F /  23.5 °C 67.7 °F /  19.8 °C 29.81 in /  1009.4 hPa WSW 1.0 mph /  1.6 km/h 3.5 mph /  5.6 km/h 80 % 0.00 in /  0 mm
19:27 74.1 °F /  23.4 °C 67.5 °F /  19.7 °C 29.81 in /  1009.4 hPa WSW 0.2 mph /  0.3 km/h 1.2 mph /  1.9 km/h 80 % 0.00 in /  0 mm
19:32 74.0 °F /  23.3 °C 67.4 °F /  19.7 °C 29.81 in /  1009.4 hPa Calm     80 % 0.00 in /  0 mm
19:37 73.9 °F /  23.3 °C 67.3 °F /  19.6 °C 29.81 in /  1009.4 hPa WSW 0.3 mph /  0.5 km/h 2.3 mph /  3.7 km/h 80 % 0.00 in /  0 mm
19:42 73.8 °F /  23.2 °C 67.2 °F /  19.6 °C 29.81 in /  1009.4 hPa Calm     80 % 0.00 in /  0 mm
19:47 73.7 °F /  23.2 °C 67.5 °F /  19.7 °C 29.81 in /  1009.4 hPa Calm     81 % 0.00 in /  0 mm
19:52 73.6 °F /  23.1 °C 67.4 °F /  19.7 °C 29.82 in /  1009.7 hPa ESE 0.7 mph /  1.1 km/h 3.0 mph /  4.8 km/h 81 % 0.00 in /  0 mm
19:57 73.5 °F /  23.1 °C 67.7 °F /  19.8 °C 29.81 in /  1009.4 hPa Calm     82 % 0.00 in /  0 mm
20:02 73.4 °F /  23 °C 67.6 °F /  19.8 °C 29.82 in /  1009.7 hPa Calm   1.2 mph /  1.9 km/h 82 % 0.00 in /  0 mm
20:07 73.3 °F /  22.9 °C 67.5 °F /  19.7 °C 29.82 in /  1009.7 hPa Calm   1.2 mph /  1.9 km/h 82 % 0.00 in /  0 mm
20:12 73.2 °F /  22.9 °C 67.7 °F /  19.8 °C 29.82 in /  1009.7 hPa SW 0.9 mph /  1.4 km/h 3.5 mph /  5.6 km/h 83 % 0.00 in /  0 mm
20:17 73.2 °F /  22.9 °C 67.7 °F /  19.8 °C 29.82 in /  1009.7 hPa Calm   2.3 mph /  3.7 km/h 83 % 0.00 in /  0 mm
20:23 73.1 °F /  22.8 °C 67.6 °F /  19.8 °C 29.82 in /  1009.7 hPa SSW 0.3 mph /  0.5 km/h 1.2 mph /  1.9 km/h 83 % 0.00 in /  0 mm
20:28 73.1 °F /  22.8 °C 67.6 °F /  19.8 °C 29.82 in /  1009.7 hPa Calm   1.2 mph /  1.9 km/h 83 % 0.00 in /  0 mm
20:33 73.0 °F /  22.8 °C 67.9 °F /  19.9 °C 29.82 in /  1009.7 hPa Calm   1.2 mph /  1.9 km/h 84 % 0.00 in /  0 mm
20:38 73.0 °F /  22.8 °C 67.9 °F /  19.9 °C 29.82 in /  1009.7 hPa Calm     84 % 0.00 in /  0 mm
20:43 73.0 °F /  22.8 °C 67.5 °F /  19.7 °C 29.82 in /  1009.7 hPa Calm     83 % 0.00 in /  0 mm
20:48 72.9 °F /  22.7 °C 67.8 °F /  19.9 °C 29.82 in /  1009.7 hPa Calm   1.2 mph /  1.9 km/h 84 % 0.00 in /  0 mm
20:53 72.9 °F /  22.7 °C 67.8 °F /  19.9 °C 29.82 in /  1009.7 hPa Calm     84 % 0.00 in /  0 mm
20:58 72.9 °F /  22.7 °C 67.8 °F /  19.9 °C 29.82 in /  1009.7 hPa Calm     84 % 0.00 in /  0 mm
21:03 72.8 °F /  22.7 °C 67.7 °F /  19.8 °C 29.82 in /  1009.7 hPa Calm   1.2 mph /  1.9 km/h 84 % 0.00 in /  0 mm
21:08 72.8 °F /  22.7 °C 67.7 °F /  19.8 °C 29.82 in /  1009.7 hPa Calm     84 % 0.00 in /  0 mm
21:13 72.8 °F /  22.7 °C 67.7 °F /  19.8 °C 29.82 in /  1009.7 hPa Calm     84 % 0.00 in /  0 mm
21:19 72.8 °F /  22.7 °C 68.0 °F /  20 °C 29.82 in /  1009.7 hPa Calm     85 % 0.00 in /  0 mm
21:24 72.8 °F /  22.7 °C 68.0 °F /  20 °C 29.82 in /  1009.7 hPa Calm     85 % 0.00 in /  0 mm
21:29 72.7 °F /  22.6 °C 67.9 °F /  19.9 °C 29.82 in /  1009.7 hPa Calm     85 % 0.00 in /  0 mm
21:34 72.7 °F /  22.6 °C 67.9 °F /  19.9 °C 29.82 in /  1009.7 hPa Calm     85 % 0.00 in /  0 mm
21:39 72.7 °F /  22.6 °C 68.3 °F /  20.2 °C 29.82 in /  1009.7 hPa Calm     86 % 0.00 in /  0 mm
21:44 72.7 °F /  22.6 °C 68.3 °F /  20.2 °C 29.81 in /  1009.4 hPa Calm     86 % 0.00 in /  0 mm
21:49 72.6 °F /  22.6 °C 68.2 °F /  20.1 °C 29.81 in /  1009.4 hPa Calm     86 % 0.00 in /  0 mm
21:54 72.6 °F /  22.6 °C 68.2 °F /  20.1 °C 29.81 in /  1009.4 hPa Calm     86 % 0.00 in /  0 mm
21:59 72.6 °F /  22.6 °C 68.2 °F /  20.1 °C 29.81 in /  1009.4 hPa Calm     86 % 0.00 in /  0 mm
22:04 72.6 °F /  22.6 °C 68.2 °F /  20.1 °C 29.82 in /  1009.7 hPa Calm     86 % 0.00 in /  0 mm
22:09 72.6 °F /  22.6 °C 68.2 °F /  20.1 °C 29.82 in /  1009.7 hPa Calm     86 % 0.00 in /  0 mm
22:14 72.6 °F /  22.6 °C 68.2 °F /  20.1 °C 29.82 in /  1009.7 hPa Calm     86 % 0.00 in /  0 mm
22:19 72.6 °F /  22.6 °C 68.2 °F /  20.1 °C 29.82 in /  1009.7 hPa Calm     86 % 0.00 in /  0 mm
22:25 72.6 °F /  22.6 °C 68.5 °F /  20.3 °C 29.82 in /  1009.7 hPa Calm     87 % 0.00 in /  0 mm
22:30 72.6 °F /  22.6 °C 68.5 °F /  20.3 °C 29.82 in /  1009.7 hPa Calm     87 % 0.00 in /  0 mm
22:35 72.6 °F /  22.6 °C 68.5 °F /  20.3 °C 29.82 in /  1009.7 hPa Calm   2.3 mph /  3.7 km/h 87 % 0.00 in /  0 mm
22:40 72.6 °F /  22.6 °C 68.5 °F /  20.3 °C 29.82 in /  1009.7 hPa Calm     87 % 0.00 in /  0 mm
22:45 72.6 °F /  22.6 °C 68.5 °F /  20.3 °C 29.82 in /  1009.7 hPa Calm     87 % 0.00 in /  0 mm
22:50 72.6 °F /  22.6 °C 68.8 °F /  20.4 °C 29.82 in /  1009.7 hPa SSW 0.5 mph /  0.8 km/h 2.3 mph /  3.7 km/h 88 % 0.00 in /  0 mm
22:55 72.6 °F /  22.6 °C 68.8 °F /  20.4 °C 29.82 in /  1009.7 hPa SSW 0.2 mph /  0.3 km/h 1.2 mph /  1.9 km/h 88 % 0.00 in /  0 mm
23:00 72.5 °F /  22.5 °C 68.7 °F /  20.4 °C 29.82 in /  1009.7 hPa Calm     88 % 0.00 in /  0 mm
23:05 72.5 °F /  22.5 °C 68.7 °F /  20.4 °C 29.82 in /  1009.7 hPa SSE 0.2 mph /  0.3 km/h   88 % 0.00 in /  0 mm
23:10 72.5 °F /  22.5 °C 68.7 °F /  20.4 °C 29.82 in /  1009.7 hPa SSE 0.1 mph /  0.2 km/h 1.2 mph /  1.9 km/h 88 % 0.00 in /  0 mm
23:19 72.4 °F /  22.4 °C 68.6 °F /  20.3 °C 29.82 in /  1009.7 hPa South 0.2 mph /  0.3 km/h 2.3 mph /  3.7 km/h 88 % 0.00 in /  0 mm
23:23 72.4 °F /  22.4 °C 68.6 °F /  20.3 °C 29.82 in /  1009.7 hPa Calm     88 % 0.00 in /  0 mm
23:24 72.4 °F /  22.4 °C 68.6 °F /  20.3 °C 29.82 in /  1009.7 hPa SSE 0.3 mph /  0.5 km/h 2.3 mph /  3.7 km/h 88 % 0.00 in /  0 mm
23:26 72.3 °F /  22.4 °C 68.5 °F /  20.3 °C 29.82 in /  1009.7 hPa Calm   2.3 mph /  3.7 km/h 88 % 0.00 in /  0 mm
23:29 72.3 °F /  22.4 °C 68.5 °F /  20.3 °C 29.82 in /  1009.7 hPa SSE 0.1 mph /  0.2 km/h   88 % 0.00 in /  0 mm
23:32 72.2 °F /  22.3 °C 68.4 °F /  20.2 °C 29.82 in /  1009.7 hPa Calm   1.2 mph /  1.9 km/h 88 % 0.00 in /  0 mm
23:39 72.2 °F /  22.3 °C 68.4 °F /  20.2 °C 29.82 in /  1009.7 hPa Calm     88 % 0.00 in /  0 mm
23:40 72.2 °F /  22.3 °C 68.4 °F /  20.2 °C 29.82 in /  1009.7 hPa Calm   1.2 mph /  1.9 km/h 88 % 0.00 in /  0 mm
23:45 72.1 °F /  22.3 °C 68.3 °F /  20.2 °C 29.81 in /  1009.4 hPa Calm     88 % 0.00 in /  0 mm
23:50 72.1 °F /  22.3 °C 68.3 °F /  20.2 °C 29.82 in /  1009.7 hPa Calm     88 % 0.00 in /  0 mm
23:56 72.1 °F /  22.3 °C 68.3 °F /  20.2 °C 29.82 in /  1009.7 hPa Calm   1.0 mph /  1.6 km/h 88 % 0.00 in /  0 mm
Crab Meadow Weather
Compliments of Weather Underground - 3 mb

Script developed by  Jim McMurry - jmcmurry@mwt.net Adapted for the template by  Wim van der Kuil - Leuven-Template.eu

Heat Index: The heat index combines air temperature and dew point in an attempt to determine the human-perceived equivalent temperature - how hot it feels. The human body normally cools itself by sweating, which evaporates and carries heat away from the body. However, when the relative humidity is high the evaporation rate is reduced, so heat is removed from the body at a lower rate causing it to retain more heat than it would in dry air.